Time,TemperatureF,DewpointF,PressureIn,WindDirection,WindDirectionDegrees,WindSpeedMPH,WindSpeedGustMPH,Humidity,HourlyPrecipIn,Conditions,Clouds,dailyrainin,SoftwareType,DateUTC
2013-03-18 00:01:00,35.6,30.7,29.84,South,171,5.0,7.0,82,0.00,,,0.00,VWS V14.01,2013-03-18 05:01:00,
2013-03-18 00:07:00,35.5,30.9,29.83,SE,134,4.0,10.0,83,0.00,,,0.00,VWS V14.01,2013-03-18 05:07:00,
2013-03-18 00:12:00,35.3,31.2,29.82,SE,146,4.0,8.0,85,0.00,,,0.00,VWS V14.01,2013-03-18 05:12:00,
2013-03-18 00:17:00,35.1,31.0,29.81,SE,132,5.0,7.0,85,0.00,,,0.00,VWS V14.01,2013-03-18 05:17:00,
2013-03-18 00:22:00,35.0,31.2,29.81,SE,131,7.0,9.0,86,0.00,,,0.00,VWS V14.01,2013-03-18 05:22:00,
2013-03-18 00:27:00,34.8,31.3,29.81,ESE,121,8.0,10.0,87,0.00,,,0.00,VWS V14.01,2013-03-18 05:27:00,
2013-03-18 00:32:00,34.6,31.4,29.81,SE,141,9.0,10.0,88,0.00,,,0.00,VWS V14.01,2013-03-18 05:32:00,
2013-03-18 00:37:00,34.5,31.6,29.81,SSE,147,10.0,10.0,89,0.00,,,0.00,VWS V14.01,2013-03-18 05:37:00,
2013-03-18 00:42:00,34.3,31.7,29.81,SE,125,6.0,10.0,90,0.00,,,0.00,VWS V14.01,2013-03-18 05:42:00,
2013-03-18 00:47:00,34.1,31.5,29.81,SSE,150,3.0,9.0,90,0.00,,,0.00,VWS V14.01,2013-03-18 05:47:00,
2013-03-18 00:52:00,34.0,31.6,29.81,SSE,148,4.0,5.0,91,0.00,,,0.00,VWS V14.01,2013-03-18 05:52:00,
2013-03-18 00:57:00,33.9,31.6,29.81,SSE,158,3.0,5.0,91,0.00,,,0.01,VWS V14.01,2013-03-18 05:57:00,
2013-03-18 01:02:00,33.7,31.4,29.81,SSE,161,1.0,6.0,91,0.00,,,0.01,VWS V14.01,2013-03-18 06:02:00,
2013-03-18 01:07:00,33.5,31.4,29.81,SSE,164,3.0,4.0,92,0.00,,,0.01,VWS V14.01,2013-03-18 06:07:00,
2013-03-18 01:12:00,33.4,31.3,29.81,South,170,4.0,6.0,92,0.00,,,0.01,VWS V14.01,2013-03-18 06:12:00,
2013-03-18 01:17:00,33.3,31.2,29.81,South,170,2.0,3.0,92,0.00,,,0.01,VWS V14.01,2013-03-18 06:17:00,
2013-03-18 01:22:00,33.3,31.2,29.82,South,177,1.0,2.0,92,0.00,,,0.01,VWS V14.01,2013-03-18 06:22:00,
2013-03-18 01:27:00,33.1,31.3,29.81,South,177,0.0,0.0,93,0.00,,,0.01,VWS V14.01,2013-03-18 06:27:00,
2013-03-18 01:32:00,33.0,31.2,29.81,South,177,1.0,1.0,93,0.00,,,0.01,VWS V14.01,2013-03-18 06:32:00,
2013-03-18 01:37:00,32.9,31.1,29.81,South,177,1.0,2.0,93,0.00,,,0.01,VWS V14.01,2013-03-18 06:37:00,
2013-03-18 01:42:00,32.8,31.0,29.81,South,177,1.0,2.0,93,0.00,,,0.01,VWS V14.01,2013-03-18 06:42:00,
2013-03-18 01:47:00,32.6,30.8,29.81,South,177,0.0,0.0,93,0.00,,,0.01,VWS V14.01,2013-03-18 06:47:00,
2013-03-18 01:53:00,32.5,30.7,29.80,SSE,154,3.0,3.0,93,0.00,,,0.01,VWS V14.01,2013-03-18 06:53:00,
2013-03-18 01:58:00,32.5,30.7,29.80,SSE,149,0.0,0.0,93,0.00,,,0.01,VWS V14.01,2013-03-18 06:58:00,
2013-03-18 02:03:00,32.5,30.7,29.81,South,174,1.0,3.0,93,0.00,,,0.01,VWS V14.01,2013-03-18 07:03:00,
2013-03-18 02:08:00,32.4,30.6,29.79,SE,145,1.0,3.0,93,0.00,,,0.01,VWS V14.01,2013-03-18 07:08:00,
2013-03-18 02:13:00,32.4,30.9,29.80,South,186,2.0,3.0,94,0.00,,,0.01,VWS V14.01,2013-03-18 07:13:00,
2013-03-18 02:18:00,32.4,30.9,29.80,SSE,160,3.0,4.0,94,0.00,,,0.01,VWS V14.01,2013-03-18 07:18:00,
2013-03-18 02:23:00,32.4,30.9,29.80,South,178,3.0,4.0,94,0.00,,,0.01,VWS V14.01,2013-03-18 07:23:00,
2013-03-18 02:28:00,32.4,30.9,29.80,South,172,2.0,4.0,94,0.00,,,0.01,VWS V14.01,2013-03-18 07:28:00,
2013-03-18 02:33:00,32.4,30.9,29.80,South,180,4.0,4.0,94,0.00,,,0.01,VWS V14.01,2013-03-18 07:33:00,
2013-03-18 02:38:00,32.4,30.9,29.80,South,172,3.0,4.0,94,0.00,,,0.01,VWS V14.01,2013-03-18 07:38:00,
2013-03-18 02:43:00,32.4,30.9,29.80,South,175,2.0,3.0,94,0.00,,,0.01,VWS V14.01,2013-03-18 07:43:00,
2013-03-18 02:48:00,32.3,30.8,29.79,South,172,4.0,4.0,94,0.00,,,0.01,VWS V14.01,2013-03-18 07:48:00,
2013-03-18 02:53:00,32.3,30.8,29.78,SSE,154,6.0,6.0,94,0.00,,-RA,0.01,VWS V14.01,2013-03-18 07:53:00,
2013-03-18 02:58:00,32.3,30.8,29.77,SSE,164,7.0,7.0,94,0.00,,-RA,0.01,VWS V14.01,2013-03-18 07:58:00,
2013-03-18 03:03:00,32.3,30.8,29.78,SSE,168,4.0,5.0,94,0.00,,-RA,0.01,VWS V14.01,2013-03-18 08:03:00,
2013-03-18 03:08:00,32.3,31.0,29.78,SSE,154,3.0,4.0,95,0.00,,-RA,0.01,VWS V14.01,2013-03-18 08:08:00,
2013-03-18 03:13:00,32.3,31.0,29.77,SSE,156,6.0,7.0,95,0.00,,-RA,0.01,VWS V14.01,2013-03-18 08:13:00,
2013-03-18 03:18:00,32.3,31.0,29.79,South,185,3.0,5.0,95,0.00,,-RA,0.01,VWS V14.01,2013-03-18 08:18:00,
2013-03-18 03:23:00,32.3,31.0,29.77,SE,145,5.0,8.0,95,0.00,,-RA,0.01,VWS V14.01,2013-03-18 08:23:00,
2013-03-18 03:28:00,32.4,31.1,29.76,SSE,147,2.0,6.0,95,0.00,,-RA,0.01,VWS V14.01,2013-03-18 08:28:00,
2013-03-18 03:33:00,32.6,31.3,29.76,SSE,147,3.0,7.0,95,0.00,,-RA,0.01,VWS V14.01,2013-03-18 08:33:00,
2013-03-18 03:38:00,32.4,31.1,29.77,South,169,2.0,4.0,95,0.00,,-RA,0.01,VWS V14.01,2013-03-18 08:38:00,
2013-03-18 03:43:00,32.3,31.0,29.78,SSW,203,3.0,6.0,95,0.00,,,0.01,VWS V14.01,2013-03-18 08:43:00,
2013-03-18 03:49:00,32.3,31.0,29.80,West,263,1.0,4.0,95,0.00,,,0.01,VWS V14.01,2013-03-18 08:49:00,
2013-03-18 03:54:00,32.4,31.1,29.80,SW,234,3.0,5.0,95,0.00,,,0.02,VWS V14.01,2013-03-18 08:54:00,
2013-03-18 03:59:00,32.4,31.1,29.80,WSW,243,4.0,4.0,95,0.00,,,0.02,VWS V14.01,2013-03-18 08:59:00,
2013-03-18 04:04:00,32.4,31.1,29.80,SW,228,3.0,3.0,95,0.00,,,0.02,VWS V14.01,2013-03-18 09:04:00,
2013-03-18 04:09:00,32.4,31.1,29.80,WSW,250,2.0,4.0,95,0.00,,,0.02,VWS V14.01,2013-03-18 09:09:00,
2013-03-18 04:14:00,32.4,31.1,29.80,WSW,249,2.0,3.0,95,0.00,,,0.02,VWS V14.01,2013-03-18 09:14:00,
2013-03-18 04:19:00,32.4,31.1,29.80,West,266,4.0,5.0,95,0.00,,,0.02,VWS V14.01,2013-03-18 09:19:00,
2013-03-18 04:24:00,32.4,31.1,29.80,WSW,246,4.0,7.0,95,0.00,,,0.02,VWS V14.01,2013-03-18 09:24:00,
2013-03-18 04:29:00,32.3,31.0,29.80,West,262,3.0,3.0,95,0.00,,,0.03,VWS V14.01,2013-03-18 09:29:00,
2013-03-18 04:34:00,32.3,31.0,29.80,WSW,243,3.0,4.0,95,0.00,,,0.03,VWS V14.01,2013-03-18 09:34:00,
2013-03-18 04:39:00,32.4,31.1,29.79,West,278,1.0,5.0,95,0.00,,,0.03,VWS V14.01,2013-03-18 09:39:00,
2013-03-18 04:44:00,32.4,31.1,29.79,NW,304,1.0,3.0,95,0.00,,,0.03,VWS V14.01,2013-03-18 09:44:00,
2013-03-18 04:49:00,32.5,31.2,29.79,WSW,251,3.0,3.0,95,0.00,,,0.03,VWS V14.01,2013-03-18 09:49:00,
2013-03-18 04:54:00,32.5,31.2,29.79,WSW,248,1.0,4.0,95,0.00,,,0.03,VWS V14.01,2013-03-18 09:54:00,
2013-03-18 04:59:00,32.5,31.2,29.79,WSW,243,1.0,4.0,95,0.00,,,0.03,VWS V14.01,2013-03-18 09:59:00,
2013-03-18 05:04:00,32.5,31.2,29.79,West,261,1.0,4.0,95,0.00,,,0.03,VWS V14.01,2013-03-18 10:04:00,
2013-03-18 05:09:00,32.5,31.2,29.79,WSW,257,2.0,2.0,95,0.00,,,0.03,VWS V14.01,2013-03-18 10:09:00,
2013-03-18 05:14:00,32.6,31.3,29.79,WSW,241,0.0,4.0,95,0.00,,,0.03,VWS V14.01,2013-03-18 10:14:00,
2013-03-18 05:19:00,32.6,31.3,29.79,WSW,251,3.0,4.0,95,0.00,,,0.03,VWS V14.01,2013-03-18 10:19:00,
2013-03-18 05:24:00,32.6,31.3,29.79,WSW,251,3.0,3.0,95,0.00,,,0.03,VWS V14.01,2013-03-18 10:24:00,
2013-03-18 05:29:00,32.6,31.3,29.79,WSW,249,0.0,3.0,95,0.00,,,0.03,VWS V14.01,2013-03-18 10:29:00,
2013-03-18 05:34:00,32.6,31.3,29.78,WSW,240,2.0,4.0,95,0.00,,,0.03,VWS V14.01,2013-03-18 10:34:00,
2013-03-18 05:39:00,32.6,31.3,29.78,WSW,251,3.0,3.0,95,0.00,,,0.03,VWS V14.01,2013-03-18 10:39:00,
2013-03-18 05:44:00,32.6,31.3,29.78,WSW,249,3.0,3.0,95,0.00,,,0.03,VWS V14.01,2013-03-18 10:44:00,
2013-03-18 05:49:00,32.6,31.3,29.78,WSW,249,3.0,3.0,95,0.00,,,0.03,VWS V14.01,2013-03-18 10:49:00,
2013-03-18 05:54:00,32.7,31.4,29.78,WSW,257,1.0,2.0,95,0.00,,,0.03,VWS V14.01,2013-03-18 10:54:00,
2013-03-18 05:59:00,32.7,31.4,29.78,WSW,237,0.0,1.0,95,0.00,,,0.03,VWS V14.01,2013-03-18 10:59:00,
2013-03-18 06:04:00,32.7,31.4,29.78,WSW,256,1.0,3.0,95,0.00,,,0.03,VWS V14.01,2013-03-18 11:04:00,
2013-03-18 06:09:00,32.7,31.4,29.77,WSW,246,2.0,3.0,95,0.00,,,0.03,VWS V14.01,2013-03-18 11:09:00,
2013-03-18 06:14:00,32.7,31.4,29.77,WSW,247,1.0,3.0,95,0.00,,,0.03,VWS V14.01,2013-03-18 11:14:00,
2013-03-18 06:19:00,32.8,31.5,29.77,WSW,249,2.0,3.0,95,0.00,,,0.04,VWS V14.01,2013-03-18 11:19:00,
2013-03-18 06:24:00,32.8,31.5,29.78,West,260,2.0,3.0,95,0.00,,,0.04,VWS V14.01,2013-03-18 11:24:00,
2013-03-18 06:29:00,32.9,31.6,29.77,WSW,252,2.0,4.0,95,0.00,,,0.04,VWS V14.01,2013-03-18 11:29:00,
2013-03-18 06:34:00,32.9,31.6,29.78,WNW,303,2.0,3.0,95,0.00,,,0.04,VWS V14.01,2013-03-18 11:34:00,
2013-03-18 06:39:00,33.0,31.7,29.78,WNW,283,0.0,4.0,95,0.00,,,0.04,VWS V14.01,2013-03-18 11:39:00,
2013-03-18 06:44:00,33.0,32.0,29.78,West,262,4.0,5.0,96,0.00,,,0.04,VWS V14.01,2013-03-18 11:44:00,
2013-03-18 06:49:00,33.2,32.2,29.78,WNW,299,2.0,3.0,96,0.00,,,0.04,VWS V14.01,2013-03-18 11:49:00,
2013-03-18 06:54:00,33.3,32.3,29.78,WNW,302,2.0,3.0,96,0.00,,BKN031,0.04,VWS V14.01,2013-03-18 11:54:00,
2013-03-18 06:59:00,33.4,32.4,29.78,WNW,291,1.0,3.0,96,0.00,,BKN031,0.04,VWS V14.01,2013-03-18 11:59:00,
2013-03-18 07:04:00,33.4,32.4,29.78,West,278,2.0,6.0,96,0.00,,BKN031,0.04,VWS V14.01,2013-03-18 12:04:00,
2013-03-18 07:09:00,33.5,32.5,29.78,WNW,298,2.0,6.0,96,0.00,,BKN031,0.04,VWS V14.01,2013-03-18 12:09:00,
2013-03-18 07:14:00,33.6,32.6,29.79,NW,322,4.0,4.0,96,0.00,,BKN031,0.04,VWS V14.01,2013-03-18 12:14:00,
2013-03-18 07:20:00,33.8,32.8,29.80,WNW,283,7.0,7.0,96,0.00,,BKN031,0.04,VWS V14.01,2013-03-18 12:20:00,
2013-03-18 07:25:00,34.1,33.1,29.80,WNW,288,4.0,10.0,96,0.00,,BKN031,0.05,VWS V14.01,2013-03-18 12:25:00,
2013-03-18 07:30:00,34.3,33.3,29.80,WNW,293,5.0,7.0,96,0.00,,BKN031,0.05,VWS V14.01,2013-03-18 12:30:00,
2013-03-18 07:35:00,34.3,33.0,29.81,WNW,293,4.0,5.0,95,0.00,,BKN031,0.05,VWS V14.01,2013-03-18 12:35:00,
2013-03-18 07:40:00,34.4,33.1,29.81,WNW,289,5.0,6.0,95,0.00,,BKN031,0.05,VWS V14.01,2013-03-18 12:40:00,
2013-03-18 07:45:00,34.4,32.9,29.81,WNW,289,3.0,6.0,94,0.00,,BKN031,0.05,VWS V14.01,2013-03-18 12:45:00,
2013-03-18 07:50:00,34.4,32.9,29.81,NW,320,3.0,9.0,94,0.00,,BKN031,0.05,VWS V14.01,2013-03-18 12:50:00,
2013-03-18 07:55:00,34.4,32.6,29.82,WNW,293,4.0,7.0,93,0.00,,FEW032,0.05,VWS V14.01,2013-03-18 12:55:00,
2013-03-18 08:00:00,34.5,32.2,29.82,NW,310,6.0,6.0,91,0.00,,FEW032,0.05,VWS V14.01,2013-03-18 13:00:00,
2013-03-18 08:05:00,34.6,32.0,29.82,NW,316,6.0,6.0,90,0.00,,FEW032,0.05,VWS V14.01,2013-03-18 13:05:00,
2013-03-18 08:10:00,34.7,31.5,29.82,NW,310,5.0,8.0,88,0.00,,FEW032,0.05,VWS V14.01,2013-03-18 13:10:00,
2013-03-18 08:15:00,34.7,30.7,29.82,NNW,329,4.0,11.0,85,0.00,,FEW032,0.05,VWS V14.01,2013-03-18 13:15:00,
2013-03-18 08:20:00,34.7,30.1,29.82,NNW,330,5.0,7.0,83,0.00,,FEW032,0.05,VWS V14.01,2013-03-18 13:20:00,
2013-03-18 08:25:00,34.7,29.5,29.83,WNW,283,7.0,11.0,81,0.00,,FEW032,0.05,VWS V14.01,2013-03-18 13:25:00,
2013-03-18 08:30:00,34.6,29.1,29.83,NW,316,8.0,8.0,80,0.00,,FEW032,0.05,VWS V14.01,2013-03-18 13:30:00,
2013-03-18 08:35:00,34.6,28.8,29.83,WNW,287,6.0,8.0,79,0.00,,FEW032,0.05,VWS V14.01,2013-03-18 13:35:00,
2013-03-18 08:40:00,34.6,28.8,29.83,NNW,347,4.0,7.0,79,0.00,,FEW032,0.06,VWS V14.01,2013-03-18 13:40:00,
2013-03-18 08:45:00,34.6,28.5,29.83,NW,324,4.0,7.0,78,0.00,,SCT200,0.06,VWS V14.01,2013-03-18 13:45:00,
2013-03-18 08:50:00,34.6,28.5,29.84,NW,318,4.0,6.0,78,0.00,,SCT200,0.06,VWS V14.01,2013-03-18 13:50:00,
2013-03-18 08:55:00,34.6,28.5,29.84,NW,312,5.0,12.0,78,0.00,,SCT200,0.06,VWS V14.01,2013-03-18 13:55:00,
2013-03-18 09:00:00,34.6,28.5,29.84,North,349,9.0,10.0,78,0.00,,SCT200,0.06,VWS V14.01,2013-03-18 14:00:00,
2013-03-18 09:05:00,34.6,28.5,29.84,WNW,296,4.0,8.0,78,0.00,,SCT200,0.07,VWS V14.01,2013-03-18 14:05:00,
2013-03-18 09:10:00,34.7,28.5,29.84,WNW,295,3.0,6.0,78,0.00,,SCT200,0.07,VWS V14.01,2013-03-18 14:10:00,
2013-03-18 09:15:00,34.8,28.3,29.84,West,280,7.0,7.0,77,0.00,,SCT200,0.07,VWS V14.01,2013-03-18 14:15:00,
2013-03-18 09:20:00,34.7,27.9,29.84,WNW,303,5.0,12.0,76,0.00,,SCT200,0.07,VWS V14.01,2013-03-18 14:20:00,
2013-03-18 09:25:00,34.8,28.0,29.85,NW,312,5.0,13.0,76,0.00,,SCT200,0.08,VWS V14.01,2013-03-18 14:25:00,
2013-03-18 09:30:00,34.7,28.2,29.85,WNW,282,7.0,13.0,77,0.00,,SCT200,0.08,VWS V14.01,2013-03-18 14:30:00,
2013-03-18 09:35:00,34.8,28.3,29.85,WNW,289,6.0,8.0,77,0.00,,FEW250,0.08,VWS V14.01,2013-03-18 14:35:00,
2013-03-18 09:41:00,35.1,28.6,29.85,WNW,289,4.0,5.0,77,0.00,,FEW250,0.08,VWS V14.01,2013-03-18 14:41:00,
2013-03-18 09:46:00,35.3,28.8,29.85,WNW,289,6.0,7.0,77,0.00,,FEW250,0.09,VWS V14.01,2013-03-18 14:46:00,
2013-03-18 09:50:00,35.4,27.0,29.85,NW,305,9.0,10.0,71,0.00,,FEW250,0.09,VWS V14.01,2013-03-18 14:50:00,
2013-03-18 09:55:00,35.4,26.6,29.86,WSW,246,7.0,12.0,70,0.00,,FEW250,0.09,VWS V14.01,2013-03-18 14:55:00,
2013-03-18 10:01:00,35.5,26.4,29.86,WNW,283,5.0,14.0,69,0.00,,FEW250,0.09,VWS V14.01,2013-03-18 15:01:00,
2013-03-18 10:06:00,35.6,26.5,29.86,NW,317,5.0,10.0,69,0.00,,FEW250,0.09,VWS V14.01,2013-03-18 15:06:00,
2013-03-18 10:11:00,35.7,26.5,29.86,WNW,293,7.0,11.0,69,0.00,,FEW250,0.10,VWS V14.01,2013-03-18 15:11:00,
2013-03-18 10:16:00,35.5,24.5,29.86,NNW,348,7.0,10.0,64,0.00,,FEW250,0.10,VWS V14.01,2013-03-18 15:16:00,
2013-03-18 10:21:00,35.1,23.0,29.87,NNW,342,7.0,19.0,61,0.00,,FEW250,0.10,VWS V14.01,2013-03-18 15:21:00,
2013-03-18 10:26:00,34.9,22.8,29.87,WNW,283,18.0,18.0,61,0.00,,FEW250,0.10,VWS V14.01,2013-03-18 15:26:00,
2013-03-18 10:31:00,34.9,23.6,29.87,NNW,339,12.0,14.0,63,0.00,,FEW250,0.10,VWS V14.01,2013-03-18 15:31:00,
2013-03-18 10:36:00,34.8,23.1,29.87,NW,313,8.0,14.0,62,0.00,,FEW250,0.10,VWS V14.01,2013-03-18 15:36:00,
2013-03-18 10:41:00,34.6,22.9,29.87,WNW,295,8.0,13.0,62,0.00,,CLR,0.11,VWS V14.01,2013-03-18 15:41:00,
2013-03-18 10:46:00,35.0,24.4,29.88,NW,322,5.0,11.0,65,0.00,,CLR,0.11,VWS V14.01,2013-03-18 15:46:00,
2013-03-18 10:51:00,35.3,25.1,29.88,WNW,282,14.0,14.0,66,0.00,,CLR,0.11,VWS V14.01,2013-03-18 15:51:00,
2013-03-18 10:56:00,35.2,23.5,29.88,NW,310,13.0,15.0,62,0.00,,CLR,0.11,VWS V14.01,2013-03-18 15:56:00,
2013-03-18 11:01:00,35.1,24.5,29.88,NW,312,2.0,9.0,65,0.00,,CLR,0.11,VWS V14.01,2013-03-18 16:01:00,
2013-03-18 11:06:00,35.5,24.9,29.88,NW,310,4.0,14.0,65,0.00,,CLR,0.11,VWS V14.01,2013-03-18 16:06:00,
2013-03-18 11:12:00,35.8,25.6,29.88,WNW,291,6.0,10.0,66,0.00,,CLR,0.11,VWS V14.01,2013-03-18 16:12:00,
2013-03-18 11:17:00,36.2,26.0,29.88,NW,326,8.0,17.0,66,0.00,,CLR,0.11,VWS V14.01,2013-03-18 16:17:00,
2013-03-18 11:22:00,36.1,24.7,29.88,NW,318,3.0,21.0,63,0.00,,CLR,0.11,VWS V14.01,2013-03-18 16:22:00,
2013-03-18 11:27:00,35.9,24.2,29.88,WNW,283,8.0,24.0,62,0.00,,CLR,0.12,VWS V14.01,2013-03-18 16:27:00,
2013-03-18 11:32:00,35.7,24.0,29.88,NW,304,12.0,21.0,62,0.00,,CLR,0.12,VWS V14.01,2013-03-18 16:32:00,
2013-03-18 11:38:00,35.9,25.7,29.88,NW,318,6.0,9.0,66,0.00,,CLR,0.12,VWS V14.01,2013-03-18 16:38:00,
2013-03-18 11:43:00,36.6,26.0,29.88,NNW,334,7.0,20.0,65,0.00,,CLR,0.12,VWS V14.01,2013-03-18 16:43:00,
2013-03-18 11:48:00,36.3,24.9,29.88,NNW,341,15.0,19.0,63,0.00,,CLR,0.12,VWS V14.01,2013-03-18 16:48:00,
2013-03-18 11:53:00,36.5,25.9,29.88,WNW,296,11.0,22.0,65,0.00,,CLR,0.12,VWS V14.01,2013-03-18 16:53:00,
2013-03-18 11:58:00,36.9,25.9,29.88,West,281,9.0,15.0,64,0.00,,CLR,0.12,VWS V14.01,2013-03-18 16:58:00,
2013-03-18 12:03:00,36.8,25.8,29.89,West,277,7.0,18.0,64,0.00,,CLR,0.13,VWS V14.01,2013-03-18 17:03:00,
2013-03-18 12:08:00,36.9,26.2,29.89,WNW,295,14.0,22.0,65,0.00,,CLR,0.13,VWS V14.01,2013-03-18 17:08:00,
2013-03-18 12:13:00,36.8,25.8,29.89,WNW,288,20.0,23.0,64,0.00,,CLR,0.13,VWS V14.01,2013-03-18 17:13:00,
2013-03-18 12:18:00,37.0,25.6,29.89,NW,305,10.0,13.0,63,0.00,,CLR,0.13,VWS V14.01,2013-03-18 17:18:00,
2013-03-18 12:23:00,36.7,24.9,29.90,WNW,287,14.0,21.0,62,0.00,,CLR,0.13,VWS V14.01,2013-03-18 17:23:00,
2013-03-18 12:28:00,36.7,25.3,29.90,NW,314,7.0,13.0,63,0.00,,CLR,0.13,VWS V14.01,2013-03-18 17:28:00,
2013-03-18 12:33:00,37.1,25.7,29.90,NNW,337,6.0,11.0,63,0.00,,CLR,0.13,VWS V14.01,2013-03-18 17:33:00,
2013-03-18 12:38:00,37.2,25.0,29.90,WSW,253,11.0,15.0,61,0.00,,CLR,0.13,VWS V14.01,2013-03-18 17:38:00,
2013-03-18 12:43:00,37.4,25.6,29.90,NW,314,7.0,17.0,62,0.00,,FEW040,0.13,VWS V14.01,2013-03-18 17:43:00,
2013-03-18 12:48:00,37.9,25.3,29.90,SW,223,7.0,19.0,60,0.00,,FEW040,0.14,VWS V14.01,2013-03-18 17:48:00,
2013-03-18 12:53:00,37.8,26.4,29.90,NW,324,4.0,9.0,63,0.00,,FEW040,0.14,VWS V14.01,2013-03-18 17:53:00,
2013-03-18 12:58:00,38.9,27.8,29.91,WNW,291,5.0,10.0,64,0.00,,FEW040,0.14,VWS V14.01,2013-03-18 17:58:00,
2013-03-18 13:03:00,38.9,25.8,29.91,WNW,302,5.0,12.0,59,0.00,,FEW040,0.14,VWS V14.01,2013-03-18 18:03:00,
2013-03-18 13:08:00,39.0,25.5,29.91,West,273,8.0,17.0,58,0.00,,FEW040,0.14,VWS V14.01,2013-03-18 18:08:00,
2013-03-18 13:13:00,39.1,25.2,29.91,NW,307,11.0,14.0,57,0.00,,FEW040,0.14,VWS V14.01,2013-03-18 18:13:00,
2013-03-18 13:18:00,38.0,25.0,29.91,NNW,341,10.0,12.0,59,0.00,,FEW040,0.14,VWS V14.01,2013-03-18 18:18:00,
2013-03-18 13:24:00,38.3,24.8,29.91,WNW,285,10.0,14.0,58,0.00,,FEW040,0.14,VWS V14.01,2013-03-18 18:24:00,
2013-03-18 13:29:00,37.9,24.0,29.91,NW,324,8.0,18.0,57,0.00,,FEW040,0.14,VWS V14.01,2013-03-18 18:29:00,
2013-03-18 13:34:00,37.7,23.4,29.92,NW,318,16.0,16.0,56,0.00,,FEW040,0.14,VWS V14.01,2013-03-18 18:34:00,
2013-03-18 13:58:00,38.2,22.6,29.91,WNW,282,9.0,20.0,53,0.00,,FEW040,0.14,VWS V14.01,2013-03-18 18:58:00,
2013-03-18 14:03:00,38.0,22.0,29.92,WNW,295,16.0,21.0,52,0.00,,SCT040,0.14,VWS V14.01,2013-03-18 19:03:00,
2013-03-18 14:08:00,37.5,21.5,29.92,NW,308,11.0,21.0,52,0.00,,SCT040,0.14,VWS V14.01,2013-03-18 19:08:00,
2013-03-18 14:13:00,38.0,21.5,29.92,WNW,298,19.0,19.0,51,0.00,,SCT040,0.14,VWS V14.01,2013-03-18 19:13:00,
2013-03-18 14:18:00,37.9,21.9,29.92,SW,231,12.0,19.0,52,0.00,,SCT040,0.15,VWS V14.01,2013-03-18 19:18:00,
2013-03-18 14:23:00,37.8,20.8,29.92,SW,236,14.0,23.0,50,0.00,,SCT040,0.15,VWS V14.01,2013-03-18 19:23:00,
2013-03-18 14:28:00,37.8,20.4,29.92,NW,323,10.0,26.0,49,0.00,,SCT040,0.15,VWS V14.01,2013-03-18 19:28:00,
2013-03-18 14:33:00,37.9,20.0,29.92,WNW,287,13.0,13.0,48,0.00,,SCT040,0.15,VWS V14.01,2013-03-18 19:33:00,
2013-03-18 14:38:00,37.8,20.8,29.92,WNW,290,11.0,14.0,50,0.00,,SCT040,0.15,VWS V14.01,2013-03-18 19:38:00,
2013-03-18 14:43:00,37.9,20.5,29.91,WNW,283,12.0,21.0,49,0.00,,SCT045,0.15,VWS V14.01,2013-03-18 19:43:00,
2013-03-18 14:48:00,37.6,20.2,29.92,WNW,301,5.0,15.0,49,0.00,,SCT045,0.15,VWS V14.01,2013-03-18 19:48:00,
2013-03-18 14:53:00,38.2,20.7,29.92,NNW,345,12.0,16.0,49,0.00,,SCT045,0.15,VWS V14.01,2013-03-18 19:53:00,
2013-03-18 14:58:00,38.2,21.2,29.91,WNW,289,20.0,21.0,50,0.00,,SCT045,0.15,VWS V14.01,2013-03-18 19:58:00,
2013-03-18 15:04:00,38.3,20.8,29.91,NW,310,7.0,16.0,49,0.00,,SCT045,0.15,VWS V14.01,2013-03-18 20:04:00,
2013-03-18 15:09:00,38.6,20.6,29.92,WNW,290,9.0,20.0,48,0.00,,SCT045,0.15,VWS V14.01,2013-03-18 20:09:00,
2013-03-18 15:14:00,38.4,20.4,29.92,NW,320,6.0,13.0,48,0.00,,SCT045,0.15,VWS V14.01,2013-03-18 20:14:00,
2013-03-18 15:19:00,38.9,21.4,29.92,WNW,298,15.0,16.0,49,0.00,,SCT045,0.15,VWS V14.01,2013-03-18 20:19:00,
2013-03-18 15:24:00,38.4,18.9,29.92,WNW,303,8.0,11.0,45,0.00,,SCT045,0.15,VWS V14.01,2013-03-18 20:24:00,
2013-03-18 15:29:00,38.4,18.9,29.92,WNW,298,5.0,15.0,45,0.00,,SCT045,0.15,VWS V14.01,2013-03-18 20:29:00,
2013-03-18 15:34:00,38.9,18.3,29.92,WNW,293,15.0,16.0,43,0.00,,SCT045,0.15,VWS V14.01,2013-03-18 20:34:00,
2013-03-18 15:39:00,38.7,19.2,29.92,WNW,282,13.0,15.0,45,0.00,,SCT045,0.15,VWS V14.01,2013-03-18 20:39:00,
2013-03-18 15:44:00,38.4,18.4,29.92,WNW,291,7.0,20.0,44,0.00,,SCT045,0.15,VWS V14.01,2013-03-18 20:44:00,
2013-03-18 15:49:00,38.0,18.0,29.92,WNW,301,13.0,22.0,44,0.00,,SCT045,0.15,VWS V14.01,2013-03-18 20:49:00,
2013-03-18 15:54:00,37.8,19.4,29.92,NW,312,10.0,19.0,47,0.00,,SCT045,0.15,VWS V14.01,2013-03-18 20:54:00,
2013-03-18 15:59:00,38.1,20.2,29.93,WNW,289,6.0,20.0,48,0.00,,SCT045,0.15,VWS V14.01,2013-03-18 20:59:00,
2013-03-18 16:04:00,38.9,19.4,29.93,NW,324,8.0,13.0,45,0.00,,SCT045,0.15,VWS V14.01,2013-03-18 21:04:00,
2013-03-18 16:09:00,38.8,19.3,29.93,West,274,11.0,11.0,45,0.00,,SCT045,0.15,VWS V14.01,2013-03-18 21:09:00,
2013-03-18 16:14:00,38.3,18.8,29.94,NW,305,9.0,14.0,45,0.00,,SCT045,0.15,VWS V14.01,2013-03-18 21:14:00,
2013-03-18 16:19:00,38.3,19.4,29.94,WNW,287,11.0,16.0,46,0.00,,SCT045,0.15,VWS V14.01,2013-03-18 21:19:00,
2013-03-18 16:24:00,38.3,18.8,29.94,WNW,286,10.0,18.0,45,0.00,,SCT045,0.15,VWS V14.01,2013-03-18 21:24:00,
2013-03-18 16:29:00,38.4,18.9,29.94,NW,324,4.0,16.0,45,0.00,,SCT045,0.15,VWS V14.01,2013-03-18 21:29:00,
2013-03-18 16:34:00,38.4,18.9,29.94,West,275,9.0,10.0,45,0.00,,SCT045,0.15,VWS V14.01,2013-03-18 21:34:00,
2013-03-18 16:39:00,38.2,18.2,29.94,NW,326,13.0,14.0,44,0.00,,SCT045,0.15,VWS V14.01,2013-03-18 21:39:00,
2013-03-18 16:44:00,38.0,18.6,29.95,WNW,293,12.0,19.0,45,0.00,,SCT049,0.15,VWS V14.01,2013-03-18 21:44:00,
2013-03-18 16:49:00,38.2,18.8,29.95,NNW,340,7.0,15.0,45,0.00,,SCT049,0.15,VWS V14.01,2013-03-18 21:49:00,
2013-03-18 16:54:00,38.2,18.8,29.95,NNW,337,10.0,16.0,45,0.00,,SCT049,0.15,VWS V14.01,2013-03-18 21:54:00,
2013-03-18 16:59:00,38.2,19.3,29.95,NNW,333,7.0,15.0,46,0.00,,SCT049,0.15,VWS V14.01,2013-03-18 21:59:00,
2013-03-18 17:04:00,38.2,18.8,29.95,NW,326,8.0,13.0,45,0.00,,SCT049,0.15,VWS V14.01,2013-03-18 22:04:00,
2013-03-18 17:09:00,38.5,19.0,29.96,WNW,295,13.0,18.0,45,0.00,,SCT049,0.15,VWS V14.01,2013-03-18 22:09:00,
2013-03-18 17:14:00,38.1,18.1,29.96,WNW,285,9.0,20.0,44,0.00,,SCT049,0.15,VWS V14.01,2013-03-18 22:14:00,
2013-03-18 17:19:00,37.9,18.5,29.96,West,278,10.0,17.0,45,0.00,,SCT049,0.15,VWS V14.01,2013-03-18 22:19:00,
2013-03-18 17:24:00,37.9,18.5,29.96,NW,304,10.0,21.0,45,0.00,,SCT049,0.15,VWS V14.01,2013-03-18 22:24:00,
2013-03-18 17:29:00,38.0,19.1,29.96,NNW,340,5.0,14.0,46,0.00,,SCT049,0.15,VWS V14.01,2013-03-18 22:29:00,
2013-03-18 17:34:00,38.0,19.1,29.96,NW,321,3.0,10.0,46,0.00,,SCT049,0.15,VWS V14.01,2013-03-18 22:34:00,
2013-03-18 17:39:00,38.0,18.6,29.97,NW,305,5.0,12.0,45,0.00,,SCT049,0.15,VWS V14.01,2013-03-18 22:39:00,
2013-03-18 17:44:00,37.9,18.0,29.97,WNW,295,11.0,16.0,44,0.00,,SCT049,0.15,VWS V14.01,2013-03-18 22:44:00,
2013-03-18 17:49:00,37.6,18.2,29.97,NW,324,9.0,11.0,45,0.00,,SCT049,0.15,VWS V14.01,2013-03-18 22:49:00,
2013-03-18 17:54:00,37.6,18.7,29.97,NW,309,11.0,11.0,46,0.00,,SCT049,0.15,VWS V14.01,2013-03-18 22:54:00,
2013-03-18 18:00:00,37.5,18.6,29.97,WSW,239,3.0,5.0,46,0.00,,SCT049,0.15,VWS V14.01,2013-03-18 23:00:00,
2013-03-18 18:05:00,37.5,18.1,29.97,NW,304,8.0,11.0,45,0.00,,SCT049,0.15,VWS V14.01,2013-03-18 23:05:00,
2013-03-18 18:09:00,37.2,17.8,29.97,NW,307,6.0,10.0,45,0.00,,SCT049,0.15,VWS V14.01,2013-03-18 23:09:00,
2013-03-18 18:14:00,37.3,17.9,29.98,WNW,288,10.0,11.0,45,0.00,,SCT049,0.15,VWS V14.01,2013-03-18 23:14:00,
2013-03-18 18:20:00,37.1,17.2,29.98,NW,313,7.0,19.0,44,0.00,,SCT049,0.15,VWS V14.01,2013-03-18 23:20:00,
2013-03-18 18:25:00,36.8,17.0,29.98,WNW,295,8.0,17.0,44,0.00,,SCT049,0.15,VWS V14.01,2013-03-18 23:25:00,
2013-03-18 18:30:00,36.6,16.8,29.98,WNW,295,7.0,9.0,44,0.00,,SCT049,0.15,VWS V14.01,2013-03-18 23:30:00,
2013-03-18 18:35:00,36.6,16.8,29.98,NW,320,4.0,10.0,44,0.00,,SCT049,0.15,VWS V14.01,2013-03-18 23:35:00,
2013-03-18 18:40:00,36.5,16.7,29.98,NNW,336,7.0,10.0,44,0.00,,SCT049,0.15,VWS V14.01,2013-03-18 23:40:00,
2013-03-18 18:45:00,36.3,17.0,29.99,NW,306,6.0,8.0,45,0.00,,FEW050,0.15,VWS V14.01,2013-03-18 23:45:00,
2013-03-18 18:50:00,36.1,16.3,29.99,WNW,286,5.0,14.0,44,0.00,,FEW050,0.15,VWS V14.01,2013-03-18 23:50:00,
2013-03-18 18:55:00,35.9,16.6,29.99,West,280,5.0,8.0,45,0.00,,FEW050,0.15,VWS V14.01,2013-03-18 23:55:00,
2013-03-18 19:00:00,35.7,16.5,29.99,WNW,300,8.0,11.0,45,0.00,,FEW050,0.15,VWS V14.01,2013-03-19 00:00:00,
2013-03-18 19:05:00,35.6,17.4,30.00,WNW,303,6.0,6.0,47,0.00,,FEW050,0.15,VWS V14.01,2013-03-19 00:05:00,
2013-03-18 19:10:00,35.5,17.3,30.00,NW,305,3.0,6.0,47,0.00,,FEW050,0.15,VWS V14.01,2013-03-19 00:10:00,
2013-03-18 19:15:00,35.3,17.1,30.00,WNW,287,5.0,11.0,47,0.00,,FEW050,0.15,VWS V14.01,2013-03-19 00:15:00,
2013-03-18 19:20:00,35.1,16.9,30.00,WNW,301,5.0,11.0,47,0.00,,FEW050,0.15,VWS V14.01,2013-03-19 00:20:00,
2013-03-18 19:25:00,34.9,16.7,30.01,NW,322,4.0,9.0,47,0.00,,FEW050,0.15,VWS V14.01,2013-03-19 00:25:00,
2013-03-18 19:30:00,34.8,16.6,30.01,WNW,294,4.0,6.0,47,0.00,,FEW050,0.15,VWS V14.01,2013-03-19 00:30:00,
2013-03-18 19:35:00,34.5,16.9,30.01,NW,310,6.0,15.0,48,0.00,,FEW050,0.15,VWS V14.01,2013-03-19 00:35:00,
2013-03-18 19:40:00,34.3,16.7,30.01,WNW,293,3.0,8.0,48,0.00,,FEW050,0.15,VWS V14.01,2013-03-19 00:40:00,
2013-03-18 19:45:00,34.1,17.0,30.01,NW,310,6.0,8.0,49,0.00,,FEW050,0.15,VWS V14.01,2013-03-19 00:45:00,
2013-03-18 19:50:00,34.0,16.9,30.02,NW,308,4.0,6.0,49,0.00,,FEW050,0.15,VWS V14.01,2013-03-19 00:50:00,
2013-03-18 19:55:00,33.9,16.8,30.02,West,277,5.0,9.0,49,0.00,,FEW050,0.15,VWS V14.01,2013-03-19 00:55:00,
2013-03-18 20:00:00,33.8,16.7,30.02,WNW,291,7.0,9.0,49,0.00,,FEW050,0.15,VWS V14.01,2013-03-19 01:00:00,
2013-03-18 20:05:00,33.6,17.0,30.02,WNW,291,2.0,4.0,50,0.00,,FEW050,0.15,VWS V14.01,2013-03-19 01:05:00,
2013-03-18 20:10:00,33.4,16.8,30.02,West,279,9.0,9.0,50,0.00,,FEW050,0.15,VWS V14.01,2013-03-19 01:10:00,
2013-03-18 20:15:00,33.3,16.7,30.02,West,268,4.0,8.0,50,0.00,,FEW050,0.15,VWS V14.01,2013-03-19 01:15:00,
2013-03-18 20:20:00,33.2,16.1,30.02,WNW,289,6.0,8.0,49,0.00,,FEW050,0.15,VWS V14.01,2013-03-19 01:20:00,
2013-03-18 20:25:00,33.1,16.5,30.03,WNW,299,3.0,7.0,50,0.00,,FEW050,0.15,VWS V14.01,2013-03-19 01:25:00,
2013-03-18 20:30:00,32.9,16.3,30.03,West,278,4.0,6.0,50,0.00,,FEW050,0.15,VWS V14.01,2013-03-19 01:30:00,
2013-03-18 20:35:00,32.9,16.3,30.03,NW,314,3.0,5.0,50,0.00,,CLR,0.15,VWS V14.01,2013-03-19 01:35:00,
2013-03-18 20:40:00,32.7,16.1,30.03,NW,311,2.0,5.0,50,0.00,,CLR,0.15,VWS V14.01,2013-03-19 01:40:00,
2013-03-18 20:45:00,32.6,16.5,30.03,WNW,301,4.0,8.0,51,0.00,,CLR,0.15,VWS V14.01,2013-03-19 01:45:00,
2013-03-18 20:50:00,32.5,16.4,30.03,WNW,297,5.0,5.0,51,0.00,,CLR,0.15,VWS V14.01,2013-03-19 01:50:00,
2013-03-18 20:56:00,32.4,16.3,30.03,West,276,2.0,5.0,51,0.00,,CLR,0.15,VWS V14.01,2013-03-19 01:56:00,
2013-03-18 21:01:00,32.3,16.2,30.03,WNW,300,4.0,7.0,51,0.00,,CLR,0.15,VWS V14.01,2013-03-19 02:01:00,
2013-03-18 21:06:00,32.1,16.5,30.03,West,274,4.0,7.0,52,0.00,,CLR,0.15,VWS V14.01,2013-03-19 02:06:00,
2013-03-18 21:11:00,31.9,16.3,30.04,WNW,283,3.0,5.0,52,0.00,,CLR,0.15,VWS V14.01,2013-03-19 02:11:00,
2013-03-18 21:16:00,31.8,16.2,30.04,WNW,295,4.0,6.0,52,0.00,,CLR,0.15,VWS V14.01,2013-03-19 02:16:00,
2013-03-18 21:21:00,31.7,16.5,30.03,WNW,297,1.0,3.0,53,0.00,,CLR,0.15,VWS V14.01,2013-03-19 02:21:00,
2013-03-18 21:26:00,31.4,16.7,30.03,WNW,303,2.0,2.0,54,0.00,,CLR,0.15,VWS V14.01,2013-03-19 02:26:00,
2013-03-18 21:31:00,31.2,16.5,30.03,NW,305,3.0,4.0,54,0.00,,CLR,0.15,VWS V14.01,2013-03-19 02:31:00,
2013-03-18 21:36:00,31.0,16.7,30.03,West,276,1.0,4.0,55,0.00,,CLR,0.15,VWS V14.01,2013-03-19 02:36:00,
2013-03-18 21:41:00,30.8,16.5,30.03,WNW,288,1.0,2.0,55,0.00,,CLR,0.15,VWS V14.01,2013-03-19 02:41:00,
2013-03-18 21:47:00,30.7,16.5,30.03,NW,311,0.0,1.0,55,0.00,,CLR,0.15,VWS V14.01,2013-03-19 02:47:00,
2013-03-18 21:52:00,30.5,16.7,30.03,NW,308,0.0,1.0,56,0.00,,CLR,0.15,VWS V14.01,2013-03-19 02:52:00,
2013-03-18 21:57:00,30.4,16.6,30.04,WNW,296,2.0,3.0,56,0.00,,CLR,0.15,VWS V14.01,2013-03-19 02:57:00,
2013-03-18 22:02:00,30.3,16.5,30.04,WNW,296,2.0,3.0,56,0.00,,CLR,0.15,VWS V14.01,2013-03-19 03:02:00,
2013-03-18 22:07:00,30.2,16.8,30.05,WNW,296,1.0,2.0,57,0.00,,CLR,0.15,VWS V14.01,2013-03-19 03:07:00,
2013-03-18 22:12:00,30.1,16.7,30.05,WNW,296,2.0,3.0,57,0.00,,CLR,0.15,VWS V14.01,2013-03-19 03:12:00,
2013-03-18 22:17:00,30.0,16.6,30.05,WNW,296,1.0,2.0,57,0.00,,CLR,0.15,VWS V14.01,2013-03-19 03:17:00,
2013-03-18 22:22:00,29.7,16.8,30.06,WNW,296,1.0,2.0,58,0.00,,CLR,0.15,VWS V14.01,2013-03-19 03:22:00,
2013-03-18 22:27:00,29.7,16.8,30.06,WNW,296,2.0,2.0,58,0.00,,CLR,0.15,VWS V14.01,2013-03-19 03:27:00,
2013-03-18 22:32:00,29.4,16.9,30.06,West,264,1.0,2.0,59,0.00,,CLR,0.15,VWS V14.01,2013-03-19 03:32:00,
2013-03-18 22:37:00,29.2,16.7,30.06,West,264,2.0,3.0,59,0.00,,CLR,0.15,VWS V14.01,2013-03-19 03:37:00,
2013-03-18 22:42:00,29.0,16.9,30.07,WSW,253,2.0,3.0,60,0.00,,CLR,0.15,VWS V14.01,2013-03-19 03:42:00,
2013-03-18 22:47:00,29.0,17.2,30.07,West,280,1.0,4.0,61,0.00,,CLR,0.15,VWS V14.01,2013-03-19 03:47:00,
2013-03-18 22:52:00,29.0,17.2,30.06,WNW,298,2.0,3.0,61,0.00,,CLR,0.15,VWS V14.01,2013-03-19 03:52:00,
2013-03-18 22:57:00,28.8,17.4,30.07,West,280,3.0,4.0,62,0.00,,CLR,0.15,VWS V14.01,2013-03-19 03:57:00,
2013-03-18 23:00:00,28.8,17.1,30.06,WNW,295,3.0,5.0,61,0.00,,CLR,0.15,VWS V14.01,2013-03-19 04:00:00,
2013-03-18 23:01:00,28.8,17.4,30.07,WNW,295,2.0,4.0,62,0.00,,CLR,0.15,VWS V14.01,2013-03-19 04:01:00,
2013-03-18 23:06:00,28.8,17.1,30.06,WNW,287,2.0,4.0,61,0.00,,CLR,0.15,VWS V14.01,2013-03-19 04:06:00,
2013-03-18 23:11:00,28.8,17.1,30.06,WNW,292,3.0,3.0,61,0.00,,CLR,0.15,VWS V14.01,2013-03-19 04:11:00,
2013-03-18 23:16:00,28.7,17.3,30.06,West,272,3.0,4.0,62,0.00,,CLR,0.15,VWS V14.01,2013-03-19 04:16:00,
2013-03-18 23:21:00,28.6,17.2,30.06,WNW,287,1.0,3.0,62,0.00,,CLR,0.15,VWS V14.01,2013-03-19 04:21:00,
2013-03-18 23:26:00,28.5,17.1,30.07,WNW,291,1.0,3.0,62,0.00,,CLR,0.15,VWS V14.01,2013-03-19 04:26:00,
2013-03-18 23:31:00,28.5,17.1,30.07,WNW,287,4.0,5.0,62,0.00,,CLR,0.15,VWS V14.01,2013-03-19 04:31:00,
2013-03-18 23:36:00,28.8,17.1,30.07,WNW,292,2.0,5.0,61,0.00,,CLR,0.15,VWS V14.01,2013-03-19 04:36:00,
2013-03-18 23:41:00,28.9,17.2,30.06,West,269,1.0,4.0,61,0.00,,CLR,0.15,VWS V14.01,2013-03-19 04:41:00,
2013-03-18 23:46:00,28.9,17.2,30.06,WNW,293,5.0,7.0,61,0.00,,CLR,0.15,VWS V14.01,2013-03-19 04:46:00,
2013-03-18 23:51:00,29.0,17.2,30.06,WNW,290,3.0,4.0,61,0.00,,CLR,0.15,VWS V14.01,2013-03-19 04:51:00,
2013-03-18 23:56:00,29.0,17.2,30.06,WNW,287,4.0,5.0,61,0.00,,CLR,0.15,VWS V14.01,2013-03-19 04:56:00,